sensor_id;sensor_type;location;lat;lon;timestamp;P1;durP1;ratioP1;P2;durP2;ratioP2
38609;SDS011;24367;51.640;9.566;2024-01-07T00:02:06;3.08;;;1.83;;
38609;SDS011;24367;51.640;9.566;2024-01-07T00:04:33;3.42;;;1.80;;
38609;SDS011;24367;51.640;9.566;2024-01-07T00:07:00;2.80;;;1.90;;
38609;SDS011;24367;51.640;9.566;2024-01-07T00:09:26;2.63;;;1.75;;
38609;SDS011;24367;51.640;9.566;2024-01-07T00:11:53;3.08;;;1.85;;
38609;SDS011;24367;51.640;9.566;2024-01-07T00:14:19;2.67;;;1.77;;
38609;SDS011;24367;51.640;9.566;2024-01-07T00:16:46;3.55;;;1.70;;
38609;SDS011;24367;51.640;9.566;2024-01-07T00:19:12;2.88;;;1.70;;
38609;SDS011;24367;51.640;9.566;2024-01-07T00:21:40;2.38;;;1.50;;
38609;SDS011;24367;51.640;9.566;2024-01-07T00:24:06;2.60;;;1.58;;
38609;SDS011;24367;51.640;9.566;2024-01-07T00:26:33;2.58;;;1.67;;
38609;SDS011;24367;51.640;9.566;2024-01-07T00:28:59;3.53;;;2.13;;
38609;SDS011;24367;51.640;9.566;2024-01-07T00:31:26;2.85;;;1.70;;
38609;SDS011;24367;51.640;9.566;2024-01-07T00:33:52;2.72;;;1.80;;
38609;SDS011;24367;51.640;9.566;2024-01-07T00:36:19;3.20;;;1.63;;
38609;SDS011;24367;51.640;9.566;2024-01-07T00:38:46;2.92;;;1.85;;
38609;SDS011;24367;51.640;9.566;2024-01-07T00:41:13;3.00;;;1.80;;
38609;SDS011;24367;51.640;9.566;2024-01-07T00:43:40;2.65;;;1.60;;
38609;SDS011;24367;51.640;9.566;2024-01-07T00:46:06;5.80;;;1.85;;
38609;SDS011;24367;51.640;9.566;2024-01-07T00:48:33;3.63;;;2.10;;
38609;SDS011;24367;51.640;9.566;2024-01-07T00:51:00;2.80;;;1.85;;
38609;SDS011;24367;51.640;9.566;2024-01-07T00:53:26;2.85;;;1.80;;
38609;SDS011;24367;51.640;9.566;2024-01-07T00:55:54;2.80;;;2.10;;
38609;SDS011;24367;51.640;9.566;2024-01-07T00:58:20;3.45;;;2.00;;
38609;SDS011;24367;51.640;9.566;2024-01-07T01:00:47;3.45;;;2.05;;
38609;SDS011;24367;51.640;9.566;2024-01-07T01:03:14;2.50;;;1.55;;
38609;SDS011;24367;51.640;9.566;2024-01-07T01:05:40;3.92;;;2.03;;
38609;SDS011;24367;51.640;9.566;2024-01-07T01:08:07;2.50;;;1.60;;
38609;SDS011;24367;51.640;9.566;2024-01-07T01:10:33;2.72;;;1.98;;
38609;SDS011;24367;51.640;9.566;2024-01-07T01:13:01;3.10;;;2.00;;
38609;SDS011;24367;51.640;9.566;2024-01-07T01:15:28;2.97;;;1.98;;
38609;SDS011;24367;51.640;9.566;2024-01-07T01:17:55;4.80;;;1.90;;
38609;SDS011;24367;51.640;9.566;2024-01-07T01:20:22;3.33;;;2.00;;
38609;SDS011;24367;51.640;9.566;2024-01-07T01:22:48;3.08;;;1.92;;
38609;SDS011;24367;51.640;9.566;2024-01-07T01:25:15;3.15;;;1.92;;
38609;SDS011;24367;51.640;9.566;2024-01-07T01:27:42;2.88;;;1.88;;
38609;SDS011;24367;51.640;9.566;2024-01-07T01:30:11;2.80;;;1.90;;
38609;SDS011;24367;51.640;9.566;2024-01-07T01:32:38;3.70;;;2.30;;
38609;SDS011;24367;51.640;9.566;2024-01-07T01:35:05;3.22;;;2.00;;
38609;SDS011;24367;51.640;9.566;2024-01-07T01:37:32;2.90;;;2.05;;
38609;SDS011;24367;51.640;9.566;2024-01-07T01:39:58;3.17;;;2.00;;
38609;SDS011;24367;51.640;9.566;2024-01-07T01:42:25;2.80;;;1.83;;
38609;SDS011;24367;51.640;9.566;2024-01-07T01:44:52;3.72;;;2.67;;
38609;SDS011;24367;51.640;9.566;2024-01-07T01:47:23;2.42;;;1.77;;
38609;SDS011;24367;51.640;9.566;2024-01-07T01:49:49;2.78;;;2.00;;
38609;SDS011;24367;51.640;9.566;2024-01-07T01:52:16;4.50;;;2.25;;
38609;SDS011;24367;51.640;9.566;2024-01-07T01:54:43;2.90;;;1.90;;
38609;SDS011;24367;51.640;9.566;2024-01-07T01:57:09;2.95;;;1.80;;
38609;SDS011;24367;51.640;9.566;2024-01-07T01:59:39;2.92;;;2.17;;
38609;SDS011;24367;51.640;9.566;2024-01-07T02:02:06;3.13;;;2.20;;
38609;SDS011;24367;51.640;9.566;2024-01-07T02:04:34;3.30;;;2.38;;
38609;SDS011;24367;51.640;9.566;2024-01-07T02:07:00;3.33;;;2.25;;
38609;SDS011;24367;51.640;9.566;2024-01-07T02:09:27;3.25;;;2.10;;
38609;SDS011;24367;51.640;9.566;2024-01-07T02:12:00;2.90;;;2.00;;
38609;SDS011;24367;51.640;9.566;2024-01-07T02:14:27;2.95;;;2.05;;
38609;SDS011;24367;51.640;9.566;2024-01-07T02:16:54;3.10;;;2.20;;
38609;SDS011;24367;51.640;9.566;2024-01-07T02:19:20;2.95;;;2.15;;
38609;SDS011;24367;51.640;9.566;2024-01-07T02:21:50;3.22;;;2.35;;
38609;SDS011;24367;51.640;9.566;2024-01-07T02:24:18;3.53;;;2.33;;
38609;SDS011;24367;51.640;9.566;2024-01-07T02:26:44;2.75;;;1.85;;
38609;SDS011;24367;51.640;9.566;2024-01-07T02:29:11;3.08;;;2.10;;
38609;SDS011;24367;51.640;9.566;2024-01-07T02:31:37;3.13;;;2.10;;
38609;SDS011;24367;51.640;9.566;2024-01-07T02:34:04;3.78;;;2.30;;
38609;SDS011;24367;51.640;9.566;2024-01-07T02:36:31;5.28;;;2.30;;
38609;SDS011;24367;51.640;9.566;2024-01-07T02:38:57;3.42;;;2.00;;
38609;SDS011;24367;51.640;9.566;2024-01-07T02:41:25;3.67;;;2.20;;
38609;SDS011;24367;51.640;9.566;2024-01-07T02:43:52;4.88;;;2.28;;
38609;SDS011;24367;51.640;9.566;2024-01-07T02:46:19;3.88;;;1.85;;
38609;SDS011;24367;51.640;9.566;2024-01-07T02:48:45;3.45;;;2.38;;
38609;SDS011;24367;51.640;9.566;2024-01-07T02:51:12;2.75;;;2.00;;
38609;SDS011;24367;51.640;9.566;2024-01-07T02:53:38;3.20;;;2.20;;
38609;SDS011;24367;51.640;9.566;2024-01-07T02:56:07;3.75;;;2.28;;
38609;SDS011;24367;51.640;9.566;2024-01-07T02:58:36;2.45;;;1.60;;
38609;SDS011;24367;51.640;9.566;2024-01-07T03:01:02;2.80;;;2.00;;
38609;SDS011;24367;51.640;9.566;2024-01-07T03:03:33;4.68;;;2.03;;
38609;SDS011;24367;51.640;9.566;2024-01-07T03:06:00;3.58;;;2.42;;
38609;SDS011;24367;51.640;9.566;2024-01-07T03:08:27;2.78;;;1.85;;
38609;SDS011;24367;51.640;9.566;2024-01-07T03:10:53;3.85;;;2.40;;
38609;SDS011;24367;51.640;9.566;2024-01-07T03:13:20;3.20;;;2.33;;
38609;SDS011;24367;51.640;9.566;2024-01-07T03:15:48;3.35;;;2.10;;
38609;SDS011;24367;51.640;9.566;2024-01-07T03:18:14;3.72;;;2.25;;
38609;SDS011;24367;51.640;9.566;2024-01-07T03:20:41;3.63;;;2.22;;
38609;SDS011;24367;51.640;9.566;2024-01-07T03:23:07;3.40;;;2.30;;
38609;SDS011;24367;51.640;9.566;2024-01-07T03:25:33;2.75;;;1.80;;
38609;SDS011;24367;51.640;9.566;2024-01-07T03:28:00;3.20;;;2.42;;
38609;SDS011;24367;51.640;9.566;2024-01-07T03:30:26;2.70;;;1.90;;
38609;SDS011;24367;51.640;9.566;2024-01-07T03:32:54;3.50;;;2.25;;
38609;SDS011;24367;51.640;9.566;2024-01-07T03:35:20;3.00;;;2.30;;
38609;SDS011;24367;51.640;9.566;2024-01-07T03:37:49;3.40;;;2.13;;
38609;SDS011;24367;51.640;9.566;2024-01-07T03:40:15;3.20;;;2.10;;
38609;SDS011;24367;51.640;9.566;2024-01-07T03:42:42;2.50;;;1.90;;
38609;SDS011;24367;51.640;9.566;2024-01-07T03:45:08;3.45;;;2.50;;
38609;SDS011;24367;51.640;9.566;2024-01-07T03:47:35;3.72;;;2.13;;
38609;SDS011;24367;51.640;9.566;2024-01-07T03:50:03;2.70;;;1.90;;
38609;SDS011;24367;51.640;9.566;2024-01-07T03:52:29;2.88;;;1.98;;
38609;SDS011;24367;51.640;9.566;2024-01-07T03:54:56;3.03;;;2.20;;
38609;SDS011;24367;51.640;9.566;2024-01-07T03:57:22;3.20;;;2.08;;
38609;SDS011;24367;51.640;9.566;2024-01-07T03:59:49;3.08;;;1.98;;
38609;SDS011;24367;51.640;9.566;2024-01-07T04:02:15;3.15;;;2.08;;
38609;SDS011;24367;51.640;9.566;2024-01-07T04:04:42;3.10;;;2.13;;
38609;SDS011;24367;51.640;9.566;2024-01-07T04:07:09;2.45;;;1.83;;
38609;SDS011;24367;51.640;9.566;2024-01-07T04:09:36;3.20;;;2.20;;
38609;SDS011;24367;51.640;9.566;2024-01-07T04:12:02;3.58;;;2.30;;
38609;SDS011;24367;51.640;9.566;2024-01-07T04:14:30;2.55;;;1.77;;
38609;SDS011;24367;51.640;9.566;2024-01-07T04:16:58;3.05;;;1.95;;
38609;SDS011;24367;51.640;9.566;2024-01-07T04:19:25;2.90;;;1.80;;
38609;SDS011;24367;51.640;9.566;2024-01-07T04:21:51;3.10;;;2.20;;
38609;SDS011;24367;51.640;9.566;2024-01-07T04:24:19;3.72;;;2.30;;
38609;SDS011;24367;51.640;9.566;2024-01-07T04:26:45;2.72;;;1.83;;
38609;SDS011;24367;51.640;9.566;2024-01-07T04:29:12;3.70;;;2.40;;
38609;SDS011;24367;51.640;9.566;2024-01-07T04:31:38;3.47;;;2.17;;
38609;SDS011;24367;51.640;9.566;2024-01-07T04:34:05;3.05;;;2.00;;
38609;SDS011;24367;51.640;9.566;2024-01-07T04:36:31;3.33;;;2.15;;
38609;SDS011;24367;51.640;9.566;2024-01-07T04:38:58;3.00;;;2.05;;
38609;SDS011;24367;51.640;9.566;2024-01-07T04:41:25;3.53;;;2.20;;
38609;SDS011;24367;51.640;9.566;2024-01-07T04:43:52;2.53;;;1.83;;
38609;SDS011;24367;51.640;9.566;2024-01-07T04:46:18;3.28;;;2.20;;
38609;SDS011;24367;51.640;9.566;2024-01-07T04:48:45;3.22;;;2.10;;
38609;SDS011;24367;51.640;9.566;2024-01-07T04:51:11;3.05;;;2.05;;
38609;SDS011;24367;51.640;9.566;2024-01-07T04:53:38;3.17;;;1.90;;
38609;SDS011;24367;51.640;9.566;2024-01-07T04:56:04;3.00;;;2.00;;
38609;SDS011;24367;51.640;9.566;2024-01-07T04:58:32;2.63;;;1.92;;
38609;SDS011;24367;51.640;9.566;2024-01-07T05:00:59;2.90;;;1.90;;
38609;SDS011;24367;51.640;9.566;2024-01-07T05:03:25;3.53;;;2.30;;
38609;SDS011;24367;51.640;9.566;2024-01-07T05:05:52;2.97;;;2.10;;
38609;SDS011;24367;51.640;9.566;2024-01-07T05:08:18;2.83;;;2.00;;
38609;SDS011;24367;51.640;9.566;2024-01-07T05:10:45;2.90;;;1.92;;
38609;SDS011;24367;51.640;9.566;2024-01-07T05:13:11;3.28;;;2.28;;
38609;SDS011;24367;51.640;9.566;2024-01-07T05:15:39;2.95;;;2.10;;
38609;SDS011;24367;51.640;9.566;2024-01-07T05:18:06;2.50;;;1.60;;
38609;SDS011;24367;51.640;9.566;2024-01-07T05:20:33;2.58;;;1.85;;
38609;SDS011;24367;51.640;9.566;2024-01-07T05:22:59;2.90;;;2.20;;
38609;SDS011;24367;51.640;9.566;2024-01-07T05:25:26;2.67;;;1.80;;
38609;SDS011;24367;51.640;9.566;2024-01-07T05:27:52;2.83;;;1.88;;
38609;SDS011;24367;51.640;9.566;2024-01-07T05:30:19;2.80;;;2.08;;
38609;SDS011;24367;51.640;9.566;2024-01-07T05:32:47;2.75;;;1.77;;
38609;SDS011;24367;51.640;9.566;2024-01-07T05:35:13;2.80;;;1.75;;
38609;SDS011;24367;51.640;9.566;2024-01-07T05:37:40;3.20;;;2.20;;
38609;SDS011;24367;51.640;9.566;2024-01-07T05:40:07;4.40;;;2.08;;
38609;SDS011;24367;51.640;9.566;2024-01-07T05:42:34;3.05;;;1.90;;
38609;SDS011;24367;51.640;9.566;2024-01-07T05:45:00;3.03;;;1.80;;
38609;SDS011;24367;51.640;9.566;2024-01-07T05:47:27;2.53;;;1.67;;
38609;SDS011;24367;51.640;9.566;2024-01-07T05:49:56;3.42;;;2.20;;
38609;SDS011;24367;51.640;9.566;2024-01-07T05:52:22;2.58;;;1.90;;
38609;SDS011;24367;51.640;9.566;2024-01-07T05:54:49;2.75;;;1.95;;
38609;SDS011;24367;51.640;9.566;2024-01-07T05:57:15;2.90;;;1.95;;
38609;SDS011;24367;51.640;9.566;2024-01-07T05:59:43;2.92;;;1.83;;
38609;SDS011;24367;51.640;9.566;2024-01-07T06:02:09;2.72;;;1.90;;
38609;SDS011;24367;51.640;9.566;2024-01-07T06:04:36;2.80;;;1.90;;
38609;SDS011;24367;51.640;9.566;2024-01-07T06:07:04;2.63;;;1.80;;
38609;SDS011;24367;51.640;9.566;2024-01-07T06:09:31;2.45;;;1.67;;
38609;SDS011;24367;51.640;9.566;2024-01-07T06:11:57;2.97;;;2.05;;
38609;SDS011;24367;51.640;9.566;2024-01-07T06:14:23;2.72;;;1.80;;
38609;SDS011;24367;51.640;9.566;2024-01-07T06:16:50;3.08;;;2.10;;
38609;SDS011;24367;51.640;9.566;2024-01-07T06:19:17;2.40;;;1.73;;
38609;SDS011;24367;51.640;9.566;2024-01-07T06:21:44;2.78;;;1.70;;
38609;SDS011;24367;51.640;9.566;2024-01-07T06:24:12;3.00;;;1.77;;
38609;SDS011;24367;51.640;9.566;2024-01-07T06:26:38;2.80;;;1.83;;
38609;SDS011;24367;51.640;9.566;2024-01-07T06:29:05;2.38;;;1.60;;
38609;SDS011;24367;51.640;9.566;2024-01-07T06:31:31;2.58;;;1.58;;
38609;SDS011;24367;51.640;9.566;2024-01-07T06:33:59;2.78;;;1.73;;
38609;SDS011;24367;51.640;9.566;2024-01-07T06:36:25;2.65;;;1.83;;
38609;SDS011;24367;51.640;9.566;2024-01-07T06:38:52;2.42;;;1.63;;
38609;SDS011;24367;51.640;9.566;2024-01-07T06:41:20;2.58;;;1.80;;
38609;SDS011;24367;51.640;9.566;2024-01-07T06:43:46;2.63;;;1.63;;
38609;SDS011;24367;51.640;9.566;2024-01-07T06:46:15;3.03;;;1.92;;
38609;SDS011;24367;51.640;9.566;2024-01-07T06:48:41;3.03;;;1.90;;
38609;SDS011;24367;51.640;9.566;2024-01-07T06:51:07;2.65;;;1.80;;
38609;SDS011;24367;51.640;9.566;2024-01-07T06:53:34;2.65;;;1.77;;
38609;SDS011;24367;51.640;9.566;2024-01-07T06:56:00;2.85;;;1.55;;
38609;SDS011;24367;51.640;9.566;2024-01-07T06:58:28;2.88;;;2.03;;
38609;SDS011;24367;51.640;9.566;2024-01-07T07:00:54;2.63;;;1.80;;
38609;SDS011;24367;51.640;9.566;2024-01-07T07:03:21;3.72;;;1.70;;
38609;SDS011;24367;51.640;9.566;2024-01-07T07:05:47;3.75;;;1.75;;
38609;SDS011;24367;51.640;9.566;2024-01-07T07:08:14;3.05;;;1.80;;
38609;SDS011;24367;51.640;9.566;2024-01-07T07:10:40;3.22;;;2.17;;
38609;SDS011;24367;51.640;9.566;2024-01-07T07:13:07;3.92;;;1.67;;
38609;SDS011;24367;51.640;9.566;2024-01-07T07:15:35;3.22;;;1.73;;
38609;SDS011;24367;51.640;9.566;2024-01-07T07:18:02;3.15;;;2.25;;
38609;SDS011;24367;51.640;9.566;2024-01-07T07:20:28;2.95;;;1.85;;
38609;SDS011;24367;51.640;9.566;2024-01-07T07:22:55;2.50;;;1.52;;
38609;SDS011;24367;51.640;9.566;2024-01-07T07:25:21;3.00;;;2.10;;
38609;SDS011;24367;51.640;9.566;2024-01-07T07:27:47;4.20;;;1.70;;
38609;SDS011;24367;51.640;9.566;2024-01-07T07:30:14;3.00;;;1.88;;
38609;SDS011;24367;51.640;9.566;2024-01-07T07:32:43;2.70;;;1.75;;
38609;SDS011;24367;51.640;9.566;2024-01-07T07:35:09;3.67;;;1.67;;
38609;SDS011;24367;51.640;9.566;2024-01-07T07:37:37;4.15;;;1.75;;
38609;SDS011;24367;51.640;9.566;2024-01-07T07:40:04;2.72;;;1.70;;
38609;SDS011;24367;51.640;9.566;2024-01-07T07:42:31;3.28;;;1.95;;
38609;SDS011;24367;51.640;9.566;2024-01-07T07:44:58;2.45;;;1.63;;
38609;SDS011;24367;51.640;9.566;2024-01-07T07:47:24;2.70;;;1.70;;
38609;SDS011;24367;51.640;9.566;2024-01-07T07:49:52;2.85;;;2.08;;
38609;SDS011;24367;51.640;9.566;2024-01-07T07:52:18;2.78;;;1.73;;
38609;SDS011;24367;51.640;9.566;2024-01-07T07:54:47;3.78;;;1.75;;
38609;SDS011;24367;51.640;9.566;2024-01-07T07:57:14;3.03;;;1.88;;
38609;SDS011;24367;51.640;9.566;2024-01-07T07:59:41;3.05;;;1.65;;
38609;SDS011;24367;51.640;9.566;2024-01-07T08:02:07;3.22;;;1.90;;
38609;SDS011;24367;51.640;9.566;2024-01-07T08:04:34;3.10;;;1.60;;
38609;SDS011;24367;51.640;9.566;2024-01-07T08:07:02;2.83;;;1.85;;
38609;SDS011;24367;51.640;9.566;2024-01-07T08:09:28;3.25;;;1.88;;
38609;SDS011;24367;51.640;9.566;2024-01-07T08:11:55;2.78;;;1.42;;
38609;SDS011;24367;51.640;9.566;2024-01-07T08:14:21;2.33;;;1.35;;
38609;SDS011;24367;51.640;9.566;2024-01-07T08:16:47;3.65;;;1.73;;
38609;SDS011;24367;51.640;9.566;2024-01-07T08:19:14;2.92;;;1.77;;
38609;SDS011;24367;51.640;9.566;2024-01-07T08:21:40;4.07;;;1.90;;
38609;SDS011;24367;51.640;9.566;2024-01-07T08:24:08;4.18;;;2.05;;
38609;SDS011;24367;51.640;9.566;2024-01-07T08:26:35;5.18;;;1.80;;
38609;SDS011;24367;51.640;9.566;2024-01-07T08:29:02;3.22;;;1.77;;
38609;SDS011;24367;51.640;9.566;2024-01-07T08:31:28;3.88;;;1.83;;
38609;SDS011;24367;51.640;9.566;2024-01-07T08:33:55;4.18;;;1.75;;
38609;SDS011;24367;51.640;9.566;2024-01-07T08:36:21;3.00;;;1.63;;
38609;SDS011;24367;51.640;9.566;2024-01-07T08:38:48;3.85;;;1.50;;
38609;SDS011;24367;51.640;9.566;2024-01-07T08:41:16;2.80;;;1.38;;
38609;SDS011;24367;51.640;9.566;2024-01-07T08:43:42;2.80;;;1.52;;
38609;SDS011;24367;51.640;9.566;2024-01-07T08:46:10;2.90;;;1.25;;
38609;SDS011;24367;51.640;9.566;2024-01-07T08:48:38;3.75;;;1.60;;
38609;SDS011;24367;51.640;9.566;2024-01-07T08:51:05;3.15;;;1.70;;
38609;SDS011;24367;51.640;9.566;2024-01-07T08:53:31;8.95;;;1.92;;
38609;SDS011;24367;51.640;9.566;2024-01-07T08:55:58;10.25;;;2.30;;
38609;SDS011;24367;51.640;9.566;2024-01-07T08:58:26;4.53;;;1.73;;
38609;SDS011;24367;51.640;9.566;2024-01-07T09:00:52;6.22;;;1.58;;
38609;SDS011;24367;51.640;9.566;2024-01-07T09:03:18;4.20;;;1.45;;
38609;SDS011;24367;51.640;9.566;2024-01-07T09:05:45;4.13;;;1.50;;
38609;SDS011;24367;51.640;9.566;2024-01-07T09:08:12;2.67;;;1.40;;
38609;SDS011;24367;51.640;9.566;2024-01-07T09:10:39;3.13;;;1.88;;
38609;SDS011;24367;51.640;9.566;2024-01-07T09:13:06;5.60;;;1.60;;
38609;SDS011;24367;51.640;9.566;2024-01-07T09:15:33;2.40;;;1.35;;
38609;SDS011;24367;51.640;9.566;2024-01-07T09:18:00;2.50;;;1.45;;
38609;SDS011;24367;51.640;9.566;2024-01-07T09:20:26;2.97;;;1.70;;
38609;SDS011;24367;51.640;9.566;2024-01-07T09:22:52;3.10;;;1.50;;
38609;SDS011;24367;51.640;9.566;2024-01-07T09:25:19;5.13;;;1.48;;
38609;SDS011;24367;51.640;9.566;2024-01-07T09:27:45;3.28;;;1.75;;
38609;SDS011;24367;51.640;9.566;2024-01-07T09:30:12;2.78;;;1.30;;
38609;SDS011;24367;51.640;9.566;2024-01-07T09:32:41;2.00;;;1.23;;
38609;SDS011;24367;51.640;9.566;2024-01-07T09:35:07;2.35;;;1.65;;
38609;SDS011;24367;51.640;9.566;2024-01-07T09:37:34;2.78;;;1.75;;
38609;SDS011;24367;51.640;9.566;2024-01-07T09:40:01;3.70;;;1.25;;
38609;SDS011;24367;51.640;9.566;2024-01-07T09:42:29;2.10;;;1.23;;
38609;SDS011;24367;51.640;9.566;2024-01-07T09:44:56;2.33;;;1.58;;
38609;SDS011;24367;51.640;9.566;2024-01-07T09:47:22;2.95;;;1.58;;
38609;SDS011;24367;51.640;9.566;2024-01-07T09:49:50;2.65;;;1.40;;
38609;SDS011;24367;51.640;9.566;2024-01-07T09:52:17;2.78;;;1.67;;
38609;SDS011;24367;51.640;9.566;2024-01-07T09:54:43;2.67;;;1.67;;
38609;SDS011;24367;51.640;9.566;2024-01-07T09:57:11;3.05;;;1.42;;
38609;SDS011;24367;51.640;9.566;2024-01-07T09:59:37;4.35;;;1.70;;
38609;SDS011;24367;51.640;9.566;2024-01-07T10:02:04;7.93;;;1.50;;
38609;SDS011;24367;51.640;9.566;2024-01-07T10:04:30;3.30;;;1.90;;
38609;SDS011;24367;51.640;9.566;2024-01-07T10:06:58;4.57;;;1.83;;
38609;SDS011;24367;51.640;9.566;2024-01-07T10:09:28;3.78;;;1.80;;
38609;SDS011;24367;51.640;9.566;2024-01-07T10:11:55;2.13;;;1.35;;
38609;SDS011;24367;51.640;9.566;2024-01-07T10:14:21;3.03;;;1.60;;
38609;SDS011;24367;51.640;9.566;2024-01-07T10:16:50;3.80;;;1.48;;
38609;SDS011;24367;51.640;9.566;2024-01-07T10:19:19;2.70;;;1.35;;
38609;SDS011;24367;51.640;9.566;2024-01-07T10:21:47;5.13;;;1.50;;
38609;SDS011;24367;51.640;9.566;2024-01-07T10:24:26;2.33;;;1.30;;
38609;SDS011;24367;51.640;9.566;2024-01-07T10:27:01;2.92;;;1.52;;
38609;SDS011;24367;51.640;9.566;2024-01-07T10:29:28;3.97;;;1.60;;
38609;SDS011;24367;51.640;9.566;2024-01-07T10:31:55;3.65;;;1.55;;
38609;SDS011;24367;51.640;9.566;2024-01-07T10:34:22;2.83;;;1.40;;
38609;SDS011;24367;51.640;9.566;2024-01-07T10:36:50;5.60;;;1.48;;
38609;SDS011;24367;51.640;9.566;2024-01-07T10:39:18;5.07;;;1.40;;
38609;SDS011;24367;51.640;9.566;2024-01-07T10:41:45;3.50;;;1.45;;
38609;SDS011;24367;51.640;9.566;2024-01-07T10:44:12;2.80;;;1.25;;
38609;SDS011;24367;51.640;9.566;2024-01-07T10:46:39;4.22;;;1.40;;
38609;SDS011;24367;51.640;9.566;2024-01-07T10:49:07;4.35;;;1.35;;
38609;SDS011;24367;51.640;9.566;2024-01-07T10:51:37;8.30;;;2.53;;
38609;SDS011;24367;51.640;9.566;2024-01-07T10:54:03;2.80;;;1.20;;
38609;SDS011;24367;51.640;9.566;2024-01-07T10:56:32;3.58;;;1.00;;
38609;SDS011;24367;51.640;9.566;2024-01-07T10:59:06;6.97;;;1.73;;
38609;SDS011;24367;51.640;9.566;2024-01-07T11:01:33;3.20;;;1.40;;
38609;SDS011;24367;51.640;9.566;2024-01-07T11:04:01;5.75;;;1.73;;
38609;SDS011;24367;51.640;9.566;2024-01-07T11:06:33;9.30;;;1.50;;
38609;SDS011;24367;51.640;9.566;2024-01-07T11:09:06;6.20;;;1.83;;
38609;SDS011;24367;51.640;9.566;2024-01-07T11:11:42;10.00;;;1.30;;
38609;SDS011;24367;51.640;9.566;2024-01-07T11:17:00;2.80;;;1.30;;
38609;SDS011;24367;51.640;9.566;2024-01-07T11:19:27;4.28;;;1.30;;
38609;SDS011;24367;51.640;9.566;2024-01-07T11:21:54;7.25;;;1.40;;
38609;SDS011;24367;51.640;9.566;2024-01-07T11:24:53;6.75;;;2.20;;
38609;SDS011;24367;51.640;9.566;2024-01-07T11:27:18;9.93;;;1.45;;
38609;SDS011;24367;51.640;9.566;2024-01-07T11:29:52;4.13;;;1.52;;
38609;SDS011;24367;51.640;9.566;2024-01-07T11:32:18;3.15;;;1.45;;
38609;SDS011;24367;51.640;9.566;2024-01-07T11:34:44;3.60;;;1.30;;
38609;SDS011;24367;51.640;9.566;2024-01-07T11:37:14;4.10;;;1.35;;
38609;SDS011;24367;51.640;9.566;2024-01-07T11:39:43;5.15;;;1.45;;
38609;SDS011;24367;51.640;9.566;2024-01-07T11:42:09;2.83;;;1.48;;
38609;SDS011;24367;51.640;9.566;2024-01-07T11:44:37;6.25;;;1.20;;
38609;SDS011;24367;51.640;9.566;2024-01-07T11:47:04;6.05;;;1.30;;
38609;SDS011;24367;51.640;9.566;2024-01-07T11:49:31;3.75;;;1.33;;
38609;SDS011;24367;51.640;9.566;2024-01-07T11:51:58;4.78;;;1.17;;
38609;SDS011;24367;51.640;9.566;2024-01-07T11:54:24;3.10;;;0.93;;
38609;SDS011;24367;51.640;9.566;2024-01-07T11:56:52;2.78;;;1.35;;
38609;SDS011;24367;51.640;9.566;2024-01-07T11:59:18;2.78;;;1.00;;
38609;SDS011;24367;51.640;9.566;2024-01-07T12:01:45;4.32;;;1.00;;
38609;SDS011;24367;51.640;9.566;2024-01-07T12:04:11;1.80;;;1.00;;
38609;SDS011;24367;51.640;9.566;2024-01-07T12:06:37;4.03;;;1.15;;
38609;SDS011;24367;51.640;9.566;2024-01-07T12:09:04;2.45;;;1.10;;
38609;SDS011;24367;51.640;9.566;2024-01-07T12:11:31;2.40;;;1.20;;
38609;SDS011;24367;51.640;9.566;2024-01-07T12:13:58;3.13;;;1.17;;
38609;SDS011;24367;51.640;9.566;2024-01-07T12:16:25;3.53;;;1.35;;
38609;SDS011;24367;51.640;9.566;2024-01-07T12:18:52;2.42;;;1.20;;
38609;SDS011;24367;51.640;9.566;2024-01-07T12:21:18;3.28;;;1.15;;
38609;SDS011;24367;51.640;9.566;2024-01-07T12:23:47;4.25;;;1.15;;
38609;SDS011;24367;51.640;9.566;2024-01-07T12:26:14;3.80;;;1.00;;
38609;SDS011;24367;51.640;9.566;2024-01-07T12:28:41;2.95;;;1.17;;
38609;SDS011;24367;51.640;9.566;2024-01-07T12:31:08;2.50;;;1.23;;
38609;SDS011;24367;51.640;9.566;2024-01-07T12:33:36;3.13;;;1.10;;
38609;SDS011;24367;51.640;9.566;2024-01-07T12:36:03;2.72;;;1.10;;
38609;SDS011;24367;51.640;9.566;2024-01-07T12:38:29;3.08;;;1.23;;
38609;SDS011;24367;51.640;9.566;2024-01-07T12:40:56;2.97;;;1.17;;
38609;SDS011;24367;51.640;9.566;2024-01-07T12:43:23;3.42;;;0.88;;
38609;SDS011;24367;51.640;9.566;2024-01-07T12:45:49;2.83;;;1.02;;
38609;SDS011;24367;51.640;9.566;2024-01-07T12:48:17;2.42;;;1.00;;
38609;SDS011;24367;51.640;9.566;2024-01-07T12:50:43;3.00;;;1.13;;
38609;SDS011;24367;51.640;9.566;2024-01-07T12:53:10;2.92;;;1.25;;
38609;SDS011;24367;51.640;9.566;2024-01-07T12:55:36;2.22;;;1.23;;
38609;SDS011;24367;51.640;9.566;2024-01-07T12:58:03;2.40;;;1.02;;
38609;SDS011;24367;51.640;9.566;2024-01-07T13:00:29;7.20;;;1.30;;
38609;SDS011;24367;51.640;9.566;2024-01-07T13:02:55;2.25;;;1.05;;
38609;SDS011;24367;51.640;9.566;2024-01-07T13:05:23;2.38;;;1.05;;
38609;SDS011;24367;51.640;9.566;2024-01-07T13:07:50;2.17;;;0.98;;
38609;SDS011;24367;51.640;9.566;2024-01-07T13:10:16;1.92;;;0.90;;
38609;SDS011;24367;51.640;9.566;2024-01-07T13:12:43;2.83;;;1.15;;
38609;SDS011;24367;51.640;9.566;2024-01-07T13:15:09;2.03;;;1.10;;
38609;SDS011;24367;51.640;9.566;2024-01-07T13:17:37;2.70;;;1.30;;
38609;SDS011;24367;51.640;9.566;2024-01-07T13:20:04;2.45;;;1.17;;
38609;SDS011;24367;51.640;9.566;2024-01-07T13:22:37;1.60;;;1.00;;
38609;SDS011;24367;51.640;9.566;2024-01-07T13:25:04;1.92;;;1.00;;
38609;SDS011;24367;51.640;9.566;2024-01-07T13:27:31;1.92;;;1.10;;
38609;SDS011;24367;51.640;9.566;2024-01-07T13:29:59;4.78;;;1.38;;
38609;SDS011;24367;51.640;9.566;2024-01-07T13:32:26;2.17;;;0.90;;
38609;SDS011;24367;51.640;9.566;2024-01-07T13:34:52;2.08;;;1.20;;
38609;SDS011;24367;51.640;9.566;2024-01-07T13:37:19;3.83;;;1.25;;
38609;SDS011;24367;51.640;9.566;2024-01-07T13:39:48;2.25;;;0.88;;
38609;SDS011;24367;51.640;9.566;2024-01-07T13:42:15;4.05;;;1.25;;
38609;SDS011;24367;51.640;9.566;2024-01-07T13:44:41;4.85;;;1.02;;
38609;SDS011;24367;51.640;9.566;2024-01-07T13:47:11;2.22;;;1.13;;
38609;SDS011;24367;51.640;9.566;2024-01-07T13:49:39;4.22;;;0.95;;
38609;SDS011;24367;51.640;9.566;2024-01-07T13:52:05;4.55;;;1.38;;
38609;SDS011;24367;51.640;9.566;2024-01-07T13:54:31;5.32;;;1.55;;
38609;SDS011;24367;51.640;9.566;2024-01-07T13:56:59;5.90;;;1.48;;
38609;SDS011;24367;51.640;9.566;2024-01-07T13:59:26;6.32;;;1.40;;
38609;SDS011;24367;51.640;9.566;2024-01-07T14:01:53;5.82;;;1.65;;
38609;SDS011;24367;51.640;9.566;2024-01-07T14:04:19;6.32;;;1.48;;
38609;SDS011;24367;51.640;9.566;2024-01-07T14:06:46;8.35;;;1.80;;
38609;SDS011;24367;51.640;9.566;2024-01-07T14:09:12;8.70;;;1.52;;
38609;SDS011;24367;51.640;9.566;2024-01-07T14:11:40;7.55;;;1.67;;
38609;SDS011;24367;51.640;9.566;2024-01-07T14:14:07;4.45;;;1.20;;
38609;SDS011;24367;51.640;9.566;2024-01-07T14:16:34;6.50;;;1.55;;
38609;SDS011;24367;51.640;9.566;2024-01-07T14:19:00;4.25;;;1.23;;
38609;SDS011;24367;51.640;9.566;2024-01-07T14:21:27;7.18;;;1.40;;
38609;SDS011;24367;51.640;9.566;2024-01-07T14:23:54;5.20;;;1.33;;
38609;SDS011;24367;51.640;9.566;2024-01-07T14:26:20;4.82;;;1.50;;
38609;SDS011;24367;51.640;9.566;2024-01-07T14:28:48;4.10;;;1.25;;
38609;SDS011;24367;51.640;9.566;2024-01-07T14:31:16;4.10;;;1.50;;
38609;SDS011;24367;51.640;9.566;2024-01-07T14:33:43;4.88;;;1.25;;
38609;SDS011;24367;51.640;9.566;2024-01-07T14:36:09;6.50;;;1.67;;
38609;SDS011;24367;51.640;9.566;2024-01-07T14:38:41;5.68;;;2.33;;
38609;SDS011;24367;51.640;9.566;2024-01-07T14:41:08;3.67;;;1.52;;
38609;SDS011;24367;51.640;9.566;2024-01-07T14:43:35;5.53;;;1.30;;
38609;SDS011;24367;51.640;9.566;2024-01-07T14:46:02;6.70;;;3.15;;
38609;SDS011;24367;51.640;9.566;2024-01-07T14:48:30;5.47;;;1.70;;
38609;SDS011;24367;51.640;9.566;2024-01-07T14:50:56;4.70;;;1.45;;